sensor_id;sensor_type;location;lat;lon;timestamp;P1;durP1;ratioP1;P2;durP2;ratioP2
15412;SDS011;7805;49.554;7.632;2023-02-10T00:02:23;39.27;;;22.27;;
15412;SDS011;7805;49.554;7.632;2023-02-10T00:04:48;33.23;;;20.20;;
15412;SDS011;7805;49.554;7.632;2023-02-10T00:07:15;38.73;;;20.63;;
15412;SDS011;7805;49.554;7.632;2023-02-10T00:09:44;40.10;;;23.37;;
15412;SDS011;7805;49.554;7.632;2023-02-10T00:12:09;37.63;;;20.90;;
15412;SDS011;7805;49.554;7.632;2023-02-10T00:14:36;35.87;;;20.27;;
15412;SDS011;7805;49.554;7.632;2023-02-10T00:17:02;35.80;;;20.03;;
15412;SDS011;7805;49.554;7.632;2023-02-10T00:19:28;37.87;;;21.33;;
15412;SDS011;7805;49.554;7.632;2023-02-10T00:21:55;38.60;;;21.30;;
15412;SDS011;7805;49.554;7.632;2023-02-10T00:24:22;35.57;;;21.17;;
15412;SDS011;7805;49.554;7.632;2023-02-10T00:26:47;39.10;;;21.33;;
15412;SDS011;7805;49.554;7.632;2023-02-10T00:29:13;36.03;;;20.47;;
15412;SDS011;7805;49.554;7.632;2023-02-10T00:31:39;35.33;;;21.03;;
15412;SDS011;7805;49.554;7.632;2023-02-10T00:34:05;32.90;;;20.27;;
15412;SDS011;7805;49.554;7.632;2023-02-10T00:36:31;36.47;;;21.63;;
15412;SDS011;7805;49.554;7.632;2023-02-10T00:38:57;37.10;;;21.63;;
15412;SDS011;7805;49.554;7.632;2023-02-10T00:41:23;38.40;;;22.27;;
15412;SDS011;7805;49.554;7.632;2023-02-10T00:43:50;36.33;;;21.47;;
15412;SDS011;7805;49.554;7.632;2023-02-10T00:46:16;37.10;;;20.23;;
15412;SDS011;7805;49.554;7.632;2023-02-10T00:48:43;33.57;;;21.33;;
15412;SDS011;7805;49.554;7.632;2023-02-10T00:51:10;35.73;;;22.07;;
15412;SDS011;7805;49.554;7.632;2023-02-10T00:53:35;35.87;;;21.93;;
15412;SDS011;7805;49.554;7.632;2023-02-10T00:56:01;34.90;;;20.27;;
15412;SDS011;7805;49.554;7.632;2023-02-10T00:58:27;34.23;;;20.17;;
15412;SDS011;7805;49.554;7.632;2023-02-10T01:00:54;33.20;;;20.47;;
15412;SDS011;7805;49.554;7.632;2023-02-10T01:03:19;39.17;;;21.07;;
15412;SDS011;7805;49.554;7.632;2023-02-10T01:05:45;35.37;;;21.80;;
15412;SDS011;7805;49.554;7.632;2023-02-10T01:08:11;45.33;;;24.63;;
15412;SDS011;7805;49.554;7.632;2023-02-10T01:10:37;42.97;;;25.30;;
15412;SDS011;7805;49.554;7.632;2023-02-10T01:13:03;42.40;;;25.00;;
15412;SDS011;7805;49.554;7.632;2023-02-10T01:15:30;46.27;;;26.47;;
15412;SDS011;7805;49.554;7.632;2023-02-10T01:17:56;40.30;;;23.13;;
15412;SDS011;7805;49.554;7.632;2023-02-10T01:20:22;40.23;;;23.77;;
15412;SDS011;7805;49.554;7.632;2023-02-10T01:22:48;38.27;;;22.47;;
15412;SDS011;7805;49.554;7.632;2023-02-10T01:25:13;37.57;;;21.40;;
15412;SDS011;7805;49.554;7.632;2023-02-10T01:27:39;32.33;;;19.43;;
15412;SDS011;7805;49.554;7.632;2023-02-10T01:30:05;27.83;;;16.77;;
15412;SDS011;7805;49.554;7.632;2023-02-10T01:32:31;31.00;;;17.50;;
15412;SDS011;7805;49.554;7.632;2023-02-10T01:34:56;28.87;;;17.17;;
15412;SDS011;7805;49.554;7.632;2023-02-10T01:37:22;27.63;;;16.77;;
15412;SDS011;7805;49.554;7.632;2023-02-10T01:39:47;27.20;;;16.87;;
15412;SDS011;7805;49.554;7.632;2023-02-10T01:42:13;37.33;;;21.13;;
15412;SDS011;7805;49.554;7.632;2023-02-10T01:47:05;36.67;;;20.73;;
15412;SDS011;7805;49.554;7.632;2023-02-10T01:49:32;36.23;;;20.43;;
15412;SDS011;7805;49.554;7.632;2023-02-10T01:54:33;35.87;;;21.90;;
15412;SDS011;7805;49.554;7.632;2023-02-10T01:57:11;36.60;;;20.97;;
15412;SDS011;7805;49.554;7.632;2023-02-10T01:59:37;35.33;;;20.57;;
15412;SDS011;7805;49.554;7.632;2023-02-10T02:02:06;38.77;;;21.57;;
15412;SDS011;7805;49.554;7.632;2023-02-10T02:04:34;39.13;;;20.17;;
15412;SDS011;7805;49.554;7.632;2023-02-10T02:07:06;35.47;;;20.37;;
15412;SDS011;7805;49.554;7.632;2023-02-10T02:09:31;37.33;;;22.20;;
15412;SDS011;7805;49.554;7.632;2023-02-10T02:17:18;34.50;;;19.83;;
15412;SDS011;7805;49.554;7.632;2023-02-10T02:26:02;34.97;;;20.60;;
15412;SDS011;7805;49.554;7.632;2023-02-10T02:31:52;34.90;;;19.90;;
15412;SDS011;7805;49.554;7.632;2023-02-10T02:37:26;31.07;;;19.47;;
15412;SDS011;7805;49.554;7.632;2023-02-10T02:39:55;32.53;;;18.70;;
15412;SDS011;7805;49.554;7.632;2023-02-10T02:42:24;37.60;;;19.93;;
15412;SDS011;7805;49.554;7.632;2023-02-10T02:44:53;29.97;;;18.00;;
15412;SDS011;7805;49.554;7.632;2023-02-10T02:58:47;37.67;;;20.33;;
15412;SDS011;7805;49.554;7.632;2023-02-10T03:01:20;33.13;;;20.50;;
15412;SDS011;7805;49.554;7.632;2023-02-10T03:03:51;31.83;;;19.50;;
15412;SDS011;7805;49.554;7.632;2023-02-10T03:06:18;34.47;;;20.43;;
15412;SDS011;7805;49.554;7.632;2023-02-10T03:08:44;32.03;;;18.83;;
15412;SDS011;7805;49.554;7.632;2023-02-10T03:11:09;29.77;;;17.40;;
15412;SDS011;7805;49.554;7.632;2023-02-10T03:13:35;28.47;;;16.50;;
15412;SDS011;7805;49.554;7.632;2023-02-10T03:16:01;28.87;;;17.30;;
15412;SDS011;7805;49.554;7.632;2023-02-10T03:18:27;32.57;;;18.37;;
15412;SDS011;7805;49.554;7.632;2023-02-10T03:20:53;31.83;;;19.17;;
15412;SDS011;7805;49.554;7.632;2023-02-10T03:23:18;34.03;;;20.93;;
15412;SDS011;7805;49.554;7.632;2023-02-10T03:25:44;39.30;;;20.60;;
15412;SDS011;7805;49.554;7.632;2023-02-10T03:28:10;34.67;;;19.83;;
15412;SDS011;7805;49.554;7.632;2023-02-10T03:30:36;36.20;;;19.33;;
15412;SDS011;7805;49.554;7.632;2023-02-10T03:33:03;31.67;;;19.03;;
15412;SDS011;7805;49.554;7.632;2023-02-10T03:35:28;32.17;;;19.90;;
15412;SDS011;7805;49.554;7.632;2023-02-10T03:37:54;32.73;;;19.67;;
15412;SDS011;7805;49.554;7.632;2023-02-10T03:40:20;30.73;;;19.33;;
15412;SDS011;7805;49.554;7.632;2023-02-10T03:42:45;35.27;;;19.80;;
15412;SDS011;7805;49.554;7.632;2023-02-10T03:45:11;30.10;;;19.07;;
15412;SDS011;7805;49.554;7.632;2023-02-10T03:47:37;32.77;;;19.53;;
15412;SDS011;7805;49.554;7.632;2023-02-10T03:50:02;31.77;;;19.50;;
15412;SDS011;7805;49.554;7.632;2023-02-10T03:52:28;37.73;;;20.23;;
15412;SDS011;7805;49.554;7.632;2023-02-10T03:54:53;37.03;;;20.13;;
15412;SDS011;7805;49.554;7.632;2023-02-10T03:57:19;32.43;;;19.80;;
15412;SDS011;7805;49.554;7.632;2023-02-10T03:59:44;36.30;;;20.10;;
15412;SDS011;7805;49.554;7.632;2023-02-10T04:02:10;34.83;;;20.37;;
15412;SDS011;7805;49.554;7.632;2023-02-10T04:04:35;33.53;;;19.73;;
15412;SDS011;7805;49.554;7.632;2023-02-10T04:07:02;33.50;;;18.93;;
15412;SDS011;7805;49.554;7.632;2023-02-10T04:09:28;34.70;;;20.13;;
15412;SDS011;7805;49.554;7.632;2023-02-10T04:11:54;34.47;;;19.70;;
15412;SDS011;7805;49.554;7.632;2023-02-10T04:14:20;34.93;;;20.63;;
15412;SDS011;7805;49.554;7.632;2023-02-10T04:16:45;31.20;;;18.77;;
15412;SDS011;7805;49.554;7.632;2023-02-10T04:19:11;32.50;;;18.87;;
15412;SDS011;7805;49.554;7.632;2023-02-10T04:21:36;35.03;;;18.07;;
15412;SDS011;7805;49.554;7.632;2023-02-10T04:24:02;34.17;;;19.47;;
15412;SDS011;7805;49.554;7.632;2023-02-10T04:26:28;34.07;;;20.80;;
15412;SDS011;7805;49.554;7.632;2023-02-10T04:28:53;40.43;;;23.57;;
15412;SDS011;7805;49.554;7.632;2023-02-10T04:31:19;42.87;;;22.20;;
15412;SDS011;7805;49.554;7.632;2023-02-10T04:33:44;47.20;;;25.40;;
15412;SDS011;7805;49.554;7.632;2023-02-10T04:36:10;39.50;;;23.07;;
15412;SDS011;7805;49.554;7.632;2023-02-10T04:38:35;38.30;;;20.17;;
15412;SDS011;7805;49.554;7.632;2023-02-10T04:41:01;36.97;;;20.37;;
15412;SDS011;7805;49.554;7.632;2023-02-10T04:43:28;35.60;;;20.93;;
15412;SDS011;7805;49.554;7.632;2023-02-10T04:45:53;35.00;;;20.13;;
15412;SDS011;7805;49.554;7.632;2023-02-10T04:48:19;43.07;;;23.10;;
15412;SDS011;7805;49.554;7.632;2023-02-10T04:50:46;40.17;;;22.37;;
15412;SDS011;7805;49.554;7.632;2023-02-10T04:53:12;34.47;;;20.60;;
15412;SDS011;7805;49.554;7.632;2023-02-10T04:55:37;39.23;;;22.20;;
15412;SDS011;7805;49.554;7.632;2023-02-10T04:58:03;33.43;;;20.33;;
15412;SDS011;7805;49.554;7.632;2023-02-10T05:00:29;52.60;;;27.97;;
15412;SDS011;7805;49.554;7.632;2023-02-10T05:02:55;52.00;;;29.23;;
15412;SDS011;7805;49.554;7.632;2023-02-10T05:05:21;43.53;;;24.03;;
15412;SDS011;7805;49.554;7.632;2023-02-10T05:07:49;33.93;;;21.00;;
15412;SDS011;7805;49.554;7.632;2023-02-10T05:10:15;50.43;;;25.80;;
15412;SDS011;7805;49.554;7.632;2023-02-10T05:12:40;41.63;;;23.40;;
15412;SDS011;7805;49.554;7.632;2023-02-10T05:15:06;41.63;;;23.43;;
15412;SDS011;7805;49.554;7.632;2023-02-10T05:17:32;40.37;;;23.53;;
15412;SDS011;7805;49.554;7.632;2023-02-10T05:19:58;39.23;;;22.00;;
15412;SDS011;7805;49.554;7.632;2023-02-10T05:22:24;41.57;;;23.93;;
15412;SDS011;7805;49.554;7.632;2023-02-10T05:24:54;50.97;;;29.40;;
15412;SDS011;7805;49.554;7.632;2023-02-10T05:27:25;58.93;;;29.90;;
15412;SDS011;7805;49.554;7.632;2023-02-10T05:29:51;52.20;;;27.83;;
15412;SDS011;7805;49.554;7.632;2023-02-10T05:32:17;46.33;;;25.07;;
15412;SDS011;7805;49.554;7.632;2023-02-10T05:34:43;46.90;;;28.43;;
15412;SDS011;7805;49.554;7.632;2023-02-10T05:37:08;46.47;;;28.30;;
15412;SDS011;7805;49.554;7.632;2023-02-10T05:39:34;40.83;;;23.93;;
15412;SDS011;7805;49.554;7.632;2023-02-10T05:41:59;38.40;;;22.47;;
15412;SDS011;7805;49.554;7.632;2023-02-10T05:44:26;40.63;;;21.67;;
15412;SDS011;7805;49.554;7.632;2023-02-10T05:46:52;37.27;;;22.00;;
15412;SDS011;7805;49.554;7.632;2023-02-10T05:49:18;38.67;;;23.10;;
15412;SDS011;7805;49.554;7.632;2023-02-10T05:51:44;38.80;;;24.77;;
15412;SDS011;7805;49.554;7.632;2023-02-10T05:54:10;43.50;;;26.50;;
15412;SDS011;7805;49.554;7.632;2023-02-10T05:56:36;36.77;;;22.80;;
15412;SDS011;7805;49.554;7.632;2023-02-10T05:59:04;37.50;;;22.47;;
15412;SDS011;7805;49.554;7.632;2023-02-10T06:01:30;32.13;;;21.27;;
15412;SDS011;7805;49.554;7.632;2023-02-10T06:03:57;35.43;;;21.50;;
15412;SDS011;7805;49.554;7.632;2023-02-10T06:06:22;36.30;;;23.83;;
15412;SDS011;7805;49.554;7.632;2023-02-10T06:08:48;35.00;;;22.17;;
15412;SDS011;7805;49.554;7.632;2023-02-10T06:11:14;37.23;;;21.40;;
15412;SDS011;7805;49.554;7.632;2023-02-10T06:13:39;33.27;;;20.63;;
15412;SDS011;7805;49.554;7.632;2023-02-10T06:16:05;34.33;;;21.00;;
15412;SDS011;7805;49.554;7.632;2023-02-10T06:18:31;34.10;;;21.10;;
15412;SDS011;7805;49.554;7.632;2023-02-10T06:20:57;32.73;;;20.90;;
15412;SDS011;7805;49.554;7.632;2023-02-10T06:23:24;34.77;;;22.60;;
15412;SDS011;7805;49.554;7.632;2023-02-10T06:25:50;38.43;;;22.07;;
15412;SDS011;7805;49.554;7.632;2023-02-10T06:28:22;33.20;;;20.60;;
15412;SDS011;7805;49.554;7.632;2023-02-10T06:30:49;34.33;;;20.13;;
15412;SDS011;7805;49.554;7.632;2023-02-10T06:33:14;35.07;;;21.20;;
15412;SDS011;7805;49.554;7.632;2023-02-10T06:35:40;37.77;;;20.63;;
15412;SDS011;7805;49.554;7.632;2023-02-10T06:38:05;33.80;;;21.37;;
15412;SDS011;7805;49.554;7.632;2023-02-10T06:40:31;37.33;;;21.53;;
15412;SDS011;7805;49.554;7.632;2023-02-10T06:42:57;36.27;;;21.57;;
15412;SDS011;7805;49.554;7.632;2023-02-10T06:45:22;35.40;;;20.90;;
15412;SDS011;7805;49.554;7.632;2023-02-10T06:47:48;39.40;;;21.77;;
15412;SDS011;7805;49.554;7.632;2023-02-10T06:50:13;37.87;;;22.00;;
15412;SDS011;7805;49.554;7.632;2023-02-10T06:52:39;37.53;;;21.17;;
15412;SDS011;7805;49.554;7.632;2023-02-10T06:55:05;34.70;;;20.40;;
15412;SDS011;7805;49.554;7.632;2023-02-10T06:57:32;33.97;;;21.80;;
15412;SDS011;7805;49.554;7.632;2023-02-10T06:59:58;39.20;;;23.40;;
15412;SDS011;7805;49.554;7.632;2023-02-10T07:02:24;37.00;;;22.63;;
15412;SDS011;7805;49.554;7.632;2023-02-10T07:04:50;37.13;;;23.63;;
15412;SDS011;7805;49.554;7.632;2023-02-10T07:07:16;37.27;;;23.67;;
15412;SDS011;7805;49.554;7.632;2023-02-10T07:09:41;40.57;;;22.30;;
15412;SDS011;7805;49.554;7.632;2023-02-10T07:12:07;40.83;;;23.57;;
15412;SDS011;7805;49.554;7.632;2023-02-10T07:14:32;36.80;;;22.30;;
15412;SDS011;7805;49.554;7.632;2023-02-10T07:16:58;35.43;;;21.90;;
15412;SDS011;7805;49.554;7.632;2023-02-10T07:19:23;39.50;;;22.73;;
15412;SDS011;7805;49.554;7.632;2023-02-10T07:21:49;38.93;;;22.53;;
15412;SDS011;7805;49.554;7.632;2023-02-10T07:24:15;42.57;;;22.63;;
15412;SDS011;7805;49.554;7.632;2023-02-10T07:26:41;35.37;;;22.20;;
15412;SDS011;7805;49.554;7.632;2023-02-10T07:29:06;39.50;;;22.87;;
15412;SDS011;7805;49.554;7.632;2023-02-10T07:31:32;39.93;;;22.50;;
15412;SDS011;7805;49.554;7.632;2023-02-10T07:34:00;38.27;;;23.40;;
15412;SDS011;7805;49.554;7.632;2023-02-10T07:36:27;37.03;;;22.97;;
15412;SDS011;7805;49.554;7.632;2023-02-10T07:38:52;37.43;;;22.13;;
15412;SDS011;7805;49.554;7.632;2023-02-10T07:41:18;37.53;;;23.80;;
15412;SDS011;7805;49.554;7.632;2023-02-10T07:43:43;39.57;;;23.70;;
15412;SDS011;7805;49.554;7.632;2023-02-10T07:46:09;40.43;;;24.10;;
15412;SDS011;7805;49.554;7.632;2023-02-10T07:48:34;39.67;;;24.17;;
15412;SDS011;7805;49.554;7.632;2023-02-10T07:51:00;38.47;;;23.07;;
15412;SDS011;7805;49.554;7.632;2023-02-10T07:53:25;44.07;;;25.40;;
15412;SDS011;7805;49.554;7.632;2023-02-10T07:55:51;39.70;;;25.17;;
15412;SDS011;7805;49.554;7.632;2023-02-10T07:58:17;34.90;;;21.80;;
15412;SDS011;7805;49.554;7.632;2023-02-10T08:00:42;39.60;;;25.17;;
15412;SDS011;7805;49.554;7.632;2023-02-10T08:03:11;46.50;;;26.00;;
15412;SDS011;7805;49.554;7.632;2023-02-10T08:05:38;39.20;;;23.77;;
15412;SDS011;7805;49.554;7.632;2023-02-10T08:08:04;38.93;;;23.60;;
15412;SDS011;7805;49.554;7.632;2023-02-10T08:10:29;37.33;;;23.27;;
15412;SDS011;7805;49.554;7.632;2023-02-10T08:12:55;39.03;;;24.87;;
15412;SDS011;7805;49.554;7.632;2023-02-10T08:15:20;39.63;;;23.50;;
15412;SDS011;7805;49.554;7.632;2023-02-10T08:17:47;36.77;;;23.53;;
15412;SDS011;7805;49.554;7.632;2023-02-10T08:20:13;39.40;;;23.77;;
15412;SDS011;7805;49.554;7.632;2023-02-10T08:22:39;39.43;;;25.87;;
15412;SDS011;7805;49.554;7.632;2023-02-10T08:25:04;43.77;;;26.63;;
15412;SDS011;7805;49.554;7.632;2023-02-10T08:27:30;54.17;;;30.30;;
15412;SDS011;7805;49.554;7.632;2023-02-10T08:29:56;46.43;;;28.17;;
15412;SDS011;7805;49.554;7.632;2023-02-10T08:32:21;56.37;;;32.13;;
15412;SDS011;7805;49.554;7.632;2023-02-10T08:34:47;47.30;;;27.37;;
15412;SDS011;7805;49.554;7.632;2023-02-10T08:37:14;42.57;;;25.77;;
15412;SDS011;7805;49.554;7.632;2023-02-10T08:39:43;39.60;;;24.90;;
15412;SDS011;7805;49.554;7.632;2023-02-10T08:42:09;40.27;;;25.53;;
15412;SDS011;7805;49.554;7.632;2023-02-10T08:44:36;39.53;;;24.83;;
15412;SDS011;7805;49.554;7.632;2023-02-10T08:47:02;43.33;;;25.63;;
15412;SDS011;7805;49.554;7.632;2023-02-10T08:49:28;43.33;;;27.27;;
15412;SDS011;7805;49.554;7.632;2023-02-10T08:51:54;43.30;;;28.90;;
15412;SDS011;7805;49.554;7.632;2023-02-10T08:54:20;58.47;;;35.83;;
15412;SDS011;7805;49.554;7.632;2023-02-10T08:56:47;62.30;;;38.33;;
15412;SDS011;7805;49.554;7.632;2023-02-10T08:59:13;56.90;;;34.23;;
15412;SDS011;7805;49.554;7.632;2023-02-10T09:01:39;51.70;;;29.77;;
15412;SDS011;7805;49.554;7.632;2023-02-10T09:04:05;39.57;;;25.33;;
15412;SDS011;7805;49.554;7.632;2023-02-10T09:06:32;39.97;;;26.83;;
15412;SDS011;7805;49.554;7.632;2023-02-10T09:09:07;43.60;;;27.70;;
15412;SDS011;7805;49.554;7.632;2023-02-10T09:11:33;42.53;;;27.13;;
15412;SDS011;7805;49.554;7.632;2023-02-10T09:13:59;42.53;;;26.83;;
15412;SDS011;7805;49.554;7.632;2023-02-10T09:16:25;40.63;;;27.53;;
15412;SDS011;7805;49.554;7.632;2023-02-10T09:18:50;43.47;;;29.53;;
15412;SDS011;7805;49.554;7.632;2023-02-10T09:21:16;39.53;;;27.20;;
15412;SDS011;7805;49.554;7.632;2023-02-10T09:23:42;41.43;;;26.93;;
15412;SDS011;7805;49.554;7.632;2023-02-10T09:26:08;37.00;;;27.40;;
15412;SDS011;7805;49.554;7.632;2023-02-10T09:28:34;38.90;;;27.10;;
15412;SDS011;7805;49.554;7.632;2023-02-10T09:31:00;37.13;;;26.97;;
15412;SDS011;7805;49.554;7.632;2023-02-10T09:33:28;36.53;;;27.37;;
15412;SDS011;7805;49.554;7.632;2023-02-10T09:35:54;37.17;;;27.17;;
15412;SDS011;7805;49.554;7.632;2023-02-10T09:38:19;33.73;;;26.07;;
15412;SDS011;7805;49.554;7.632;2023-02-10T09:41:02;43.93;;;29.67;;
15412;SDS011;7805;49.554;7.632;2023-02-10T09:46:21;37.87;;;26.60;;
15412;SDS011;7805;49.554;7.632;2023-02-10T09:54:33;37.17;;;28.07;;
15412;SDS011;7805;49.554;7.632;2023-02-10T09:57:08;37.37;;;26.90;;
15412;SDS011;7805;49.554;7.632;2023-02-10T09:59:38;38.10;;;27.13;;
15412;SDS011;7805;49.554;7.632;2023-02-10T10:02:14;40.90;;;27.60;;
15412;SDS011;7805;49.554;7.632;2023-02-10T10:04:46;35.73;;;27.03;;
15412;SDS011;7805;49.554;7.632;2023-02-10T10:09:42;35.90;;;26.63;;
15412;SDS011;7805;49.554;7.632;2023-02-10T10:12:11;36.70;;;27.90;;
15412;SDS011;7805;49.554;7.632;2023-02-10T10:14:41;35.87;;;26.80;;
15412;SDS011;7805;49.554;7.632;2023-02-10T10:22:40;32.77;;;26.07;;
15412;SDS011;7805;49.554;7.632;2023-02-10T10:36:18;39.17;;;28.70;;
15412;SDS011;7805;49.554;7.632;2023-02-10T10:38:53;43.87;;;28.57;;
15412;SDS011;7805;49.554;7.632;2023-02-10T10:41:23;38.17;;;27.27;;
15412;SDS011;7805;49.554;7.632;2023-02-10T10:43:54;39.13;;;26.20;;
15412;SDS011;7805;49.554;7.632;2023-02-10T10:46:26;38.03;;;27.53;;
15412;SDS011;7805;49.554;7.632;2023-02-10T10:48:55;38.13;;;27.77;;
15412;SDS011;7805;49.554;7.632;2023-02-10T10:51:22;38.90;;;27.73;;
15412;SDS011;7805;49.554;7.632;2023-02-10T10:59:17;33.53;;;25.63;;
15412;SDS011;7805;49.554;7.632;2023-02-10T11:01:48;37.23;;;27.70;;
15412;SDS011;7805;49.554;7.632;2023-02-10T11:04:17;39.60;;;27.50;;
15412;SDS011;7805;49.554;7.632;2023-02-10T11:06:46;34.73;;;26.10;;
15412;SDS011;7805;49.554;7.632;2023-02-10T11:14:51;35.57;;;26.53;;
15412;SDS011;7805;49.554;7.632;2023-02-10T11:17:24;39.93;;;27.53;;
15412;SDS011;7805;49.554;7.632;2023-02-10T11:20:03;37.53;;;27.87;;
15412;SDS011;7805;49.554;7.632;2023-02-10T11:22:38;32.97;;;24.97;;
15412;SDS011;7805;49.554;7.632;2023-02-10T11:27:52;30.57;;;24.93;;
15412;SDS011;7805;49.554;7.632;2023-02-10T11:30:35;37.07;;;28.50;;
15412;SDS011;7805;49.554;7.632;2023-02-10T11:33:02;39.00;;;26.73;;
15412;SDS011;7805;49.554;7.632;2023-02-10T11:35:29;37.63;;;26.70;;
15412;SDS011;7805;49.554;7.632;2023-02-10T11:37:57;33.47;;;26.33;;
15412;SDS011;7805;49.554;7.632;2023-02-10T11:40:27;31.63;;;25.00;;
15412;SDS011;7805;49.554;7.632;2023-02-10T11:42:58;34.97;;;27.17;;
15412;SDS011;7805;49.554;7.632;2023-02-10T11:45:30;30.30;;;23.70;;
15412;SDS011;7805;49.554;7.632;2023-02-10T11:48:03;32.67;;;23.97;;
15412;SDS011;7805;49.554;7.632;2023-02-10T11:50:38;32.70;;;24.23;;
15412;SDS011;7805;49.554;7.632;2023-02-10T11:53:03;34.63;;;24.93;;
15412;SDS011;7805;49.554;7.632;2023-02-10T11:55:41;28.97;;;23.17;;
15412;SDS011;7805;49.554;7.632;2023-02-10T11:58:21;35.27;;;24.27;;
15412;SDS011;7805;49.554;7.632;2023-02-10T12:01:20;29.63;;;22.70;;
15412;SDS011;7805;49.554;7.632;2023-02-10T12:07:01;30.13;;;23.30;;
15412;SDS011;7805;49.554;7.632;2023-02-10T12:12:17;29.43;;;21.53;;
15412;SDS011;7805;49.554;7.632;2023-02-10T12:15:15;29.30;;;23.23;;
15412;SDS011;7805;49.554;7.632;2023-02-10T12:20:47;26.27;;;21.87;;
15412;SDS011;7805;49.554;7.632;2023-02-10T12:25:46;27.13;;;22.33;;
15412;SDS011;7805;49.554;7.632;2023-02-10T12:30:56;24.70;;;18.93;;
15412;SDS011;7805;49.554;7.632;2023-02-10T12:36:08;23.53;;;18.23;;
15412;SDS011;7805;49.554;7.632;2023-02-10T12:41:18;23.37;;;19.67;;
15412;SDS011;7805;49.554;7.632;2023-02-10T12:44:14;21.37;;;16.90;;
15412;SDS011;7805;49.554;7.632;2023-02-10T12:52:32;25.17;;;19.23;;
15412;SDS011;7805;49.554;7.632;2023-02-10T12:55:23;25.73;;;19.77;;
15412;SDS011;7805;49.554;7.632;2023-02-10T12:57:58;29.43;;;20.73;;
15412;SDS011;7805;49.554;7.632;2023-02-10T13:02:54;26.13;;;20.60;;
15412;SDS011;7805;49.554;7.632;2023-02-10T13:05:31;26.50;;;20.70;;
15412;SDS011;7805;49.554;7.632;2023-02-10T13:08:05;24.17;;;20.23;;
15412;SDS011;7805;49.554;7.632;2023-02-10T13:13:12;21.47;;;18.23;;
15412;SDS011;7805;49.554;7.632;2023-02-10T13:18:29;22.63;;;17.37;;
15412;SDS011;7805;49.554;7.632;2023-02-10T13:21:40;22.60;;;17.80;;
15412;SDS011;7805;49.554;7.632;2023-02-10T13:34:44;28.60;;;20.37;;
15412;SDS011;7805;49.554;7.632;2023-02-10T13:37:47;26.77;;;21.10;;
15412;SDS011;7805;49.554;7.632;2023-02-10T13:42:56;26.63;;;20.47;;
15412;SDS011;7805;49.554;7.632;2023-02-10T13:45:36;24.83;;;20.20;;
15412;SDS011;7805;49.554;7.632;2023-02-10T13:48:03;23.60;;;18.83;;
15412;SDS011;7805;49.554;7.632;2023-02-10T13:53:52;25.70;;;20.67;;
15412;SDS011;7805;49.554;7.632;2023-02-10T13:58:50;23.53;;;19.47;;
15412;SDS011;7805;49.554;7.632;2023-02-10T14:04:02;25.03;;;20.70;;
15412;SDS011;7805;49.554;7.632;2023-02-10T14:06:48;30.13;;;21.30;;
15412;SDS011;7805;49.554;7.632;2023-02-10T14:09:32;27.23;;;20.37;;
15412;SDS011;7805;49.554;7.632;2023-02-10T14:12:03;28.33;;;21.53;;
15412;SDS011;7805;49.554;7.632;2023-02-10T14:14:31;26.23;;;20.60;;
15412;SDS011;7805;49.554;7.632;2023-02-10T14:19:45;26.77;;;21.37;;
15412;SDS011;7805;49.554;7.632;2023-02-10T14:24:52;27.97;;;22.30;;
15412;SDS011;7805;49.554;7.632;2023-02-10T14:27:20;29.50;;;21.77;;
15412;SDS011;7805;49.554;7.632;2023-02-10T14:33:15;28.47;;;21.93;;
15412;SDS011;7805;49.554;7.632;2023-02-10T14:35:52;29.17;;;22.47;;
15412;SDS011;7805;49.554;7.632;2023-02-10T14:38:20;27.33;;;21.00;;
15412;SDS011;7805;49.554;7.632;2023-02-10T14:40:57;26.90;;;20.73;;
15412;SDS011;7805;49.554;7.632;2023-02-10T14:43:25;29.03;;;21.20;;
15412;SDS011;7805;49.554;7.632;2023-02-10T14:45:53;27.73;;;20.63;;
15412;SDS011;7805;49.554;7.632;2023-02-10T14:48:20;26.63;;;20.63;;
15412;SDS011;7805;49.554;7.632;2023-02-10T14:50:56;26.27;;;21.70;;
15412;SDS011;7805;49.554;7.632;2023-02-10T14:53:26;32.00;;;23.00;;
15412;SDS011;7805;49.554;7.632;2023-02-10T14:55:53;31.17;;;22.57;;
15412;SDS011;7805;49.554;7.632;2023-02-10T14:58:20;30.63;;;24.03;;
15412;SDS011;7805;49.554;7.632;2023-02-10T15:03:37;30.73;;;23.80;;
15412;SDS011;7805;49.554;7.632;2023-02-10T15:06:04;43.80;;;30.00;;
15412;SDS011;7805;49.554;7.632;2023-02-10T15:11:16;28.23;;;21.67;;
15412;SDS011;7805;49.554;7.632;2023-02-10T15:14:04;24.57;;;18.57;;
15412;SDS011;7805;49.554;7.632;2023-02-10T15:16:36;28.80;;;20.07;;
15412;SDS011;7805;49.554;7.632;2023-02-10T15:19:01;23.30;;;18.10;;
15412;SDS011;7805;49.554;7.632;2023-02-10T15:23:57;24.07;;;18.07;;
15412;SDS011;7805;49.554;7.632;2023-02-10T15:26:25;26.17;;;18.07;;
15412;SDS011;7805;49.554;7.632;2023-02-10T15:29:07;23.73;;;17.00;;
15412;SDS011;7805;49.554;7.632;2023-02-10T15:31:34;25.90;;;18.23;;
15412;SDS011;7805;49.554;7.632;2023-02-10T15:34:02;24.90;;;17.63;;
15412;SDS011;7805;49.554;7.632;2023-02-10T15:36:50;29.70;;;21.70;;
15412;SDS011;7805;49.554;7.632;2023-02-10T15:39:22;34.47;;;22.53;;
15412;SDS011;7805;49.554;7.632;2023-02-10T15:46:44;23.20;;;16.67;;
15412;SDS011;7805;49.554;7.632;2023-02-10T15:49:15;26.33;;;16.73;;
15412;SDS011;7805;49.554;7.632;2023-02-10T15:51:53;24.27;;;17.13;;
15412;SDS011;7805;49.554;7.632;2023-02-10T15:54:20;23.50;;;16.90;;
15412;SDS011;7805;49.554;7.632;2023-02-10T15:57:01;25.73;;;16.83;;
15412;SDS011;7805;49.554;7.632;2023-02-10T15:59:28;24.60;;;17.33;;
15412;SDS011;7805;49.554;7.632;2023-02-10T16:01:55;24.40;;;17.13;;
15412;SDS011;7805;49.554;7.632;2023-02-10T16:04:25;23.23;;;18.20;;
15412;SDS011;7805;49.554;7.632;2023-02-10T16:06:53;26.83;;;18.13;;
15412;SDS011;7805;49.554;7.632;2023-02-10T16:09:19;30.17;;;19.63;;
15412;SDS011;7805;49.554;7.632;2023-02-10T16:11:44;24.13;;;18.30;;
15412;SDS011;7805;49.554;7.632;2023-02-10T16:14:10;25.00;;;18.73;;
15412;SDS011;7805;49.554;7.632;2023-02-10T16:16:37;24.50;;;18.53;;
15412;SDS011;7805;49.554;7.632;2023-02-10T16:19:09;24.83;;;18.20;;
15412;SDS011;7805;49.554;7.632;2023-02-10T16:21:37;25.63;;;19.23;;
15412;SDS011;7805;49.554;7.632;2023-02-10T16:24:02;30.40;;;20.93;;
15412;SDS011;7805;49.554;7.632;2023-02-10T16:26:28;29.13;;;19.70;;
15412;SDS011;7805;49.554;7.632;2023-02-10T16:28:54;27.00;;;19.60;;
15412;SDS011;7805;49.554;7.632;2023-02-10T16:31:21;29.63;;;20.80;;
15412;SDS011;7805;49.554;7.632;2023-02-10T16:33:47;33.53;;;21.30;;
15412;SDS011;7805;49.554;7.632;2023-02-10T16:36:14;29.27;;;21.43;;
15412;SDS011;7805;49.554;7.632;2023-02-10T16:38:43;30.80;;;22.10;;
15412;SDS011;7805;49.554;7.632;2023-02-10T16:41:08;32.93;;;22.67;;
15412;SDS011;7805;49.554;7.632;2023-02-10T16:43:34;27.67;;;21.30;;
15412;SDS011;7805;49.554;7.632;2023-02-10T16:46:00;32.30;;;21.73;;
15412;SDS011;7805;49.554;7.632;2023-02-10T16:48:26;28.27;;;20.67;;
15412;SDS011;7805;49.554;7.632;2023-02-10T16:50:52;30.13;;;20.40;;
15412;SDS011;7805;49.554;7.632;2023-02-10T16:53:18;32.67;;;20.77;;
15412;SDS011;7805;49.554;7.632;2023-02-10T16:55:44;31.10;;;20.23;;
15412;SDS011;7805;49.554;7.632;2023-02-10T16:58:12;27.00;;;19.37;;
15412;SDS011;7805;49.554;7.632;2023-02-10T17:00:39;29.40;;;19.67;;
15412;SDS011;7805;49.554;7.632;2023-02-10T17:03:06;27.17;;;17.80;;
15412;SDS011;7805;49.554;7.632;2023-02-10T17:05:31;28.80;;;18.90;;
15412;SDS011;7805;49.554;7.632;2023-02-10T17:07:58;28.27;;;19.13;;
15412;SDS011;7805;49.554;7.632;2023-02-10T17:10:27;32.27;;;20.53;;
15412;SDS011;7805;49.554;7.632;2023-02-10T17:12:55;28.50;;;19.30;;